sensor_id;sensor_type;location;lat;lon;timestamp;pressure;altitude;pressure_sealevel;temperature;humidity
6835;BME280;3455;42.150;24.734;2022-09-09T00:00:19;67901.31;;;24.60;56.44
6835;BME280;3455;42.150;24.734;2022-09-09T00:02:54;67911.75;;;24.64;56.24
6835;BME280;3455;42.150;24.734;2022-09-09T00:05:28;67924.50;;;24.71;55.81
6835;BME280;3455;42.150;24.734;2022-09-09T00:07:59;67922.19;;;24.69;55.96
6835;BME280;3455;42.150;24.734;2022-09-09T00:10:33;67890.81;;;24.51;56.72
6835;BME280;3455;42.150;24.734;2022-09-09T00:13:08;67932.69;;;24.78;56.11
6835;BME280;3455;42.150;24.734;2022-09-09T00:15:46;67837.69;;;24.20;57.86
6835;BME280;3455;42.150;24.734;2022-09-09T00:18:23;67851.16;;;24.36;57.44
6835;BME280;3455;42.150;24.734;2022-09-09T00:20:56;67905.47;;;24.68;56.42
6835;BME280;3455;42.150;24.734;2022-09-09T00:23:25;67914.16;;;24.71;56.21
6835;BME280;3455;42.150;24.734;2022-09-09T00:26:02;67920.50;;;24.72;56.23
6835;BME280;3455;42.150;24.734;2022-09-09T00:28:31;67878.47;;;24.35;57.50
6835;BME280;3455;42.150;24.734;2022-09-09T00:31:00;67908.56;;;24.43;57.41
6835;BME280;3455;42.150;24.734;2022-09-09T00:33:30;67886.72;;;24.47;57.36
6835;BME280;3455;42.150;24.734;2022-09-09T00:35:58;67934.81;;;24.66;56.99
6835;BME280;3455;42.150;24.734;2022-09-09T00:38:31;67936.78;;;24.82;56.38
6835;BME280;3455;42.150;24.734;2022-09-09T00:41:04;67922.84;;;24.74;56.76
6835;BME280;3455;42.150;24.734;2022-09-09T00:43:35;67934.44;;;24.80;56.47
6835;BME280;3455;42.150;24.734;2022-09-09T00:46:26;67906.00;;;24.64;56.89
6835;BME280;3455;42.150;24.734;2022-09-09T00:49:04;67907.94;;;24.79;56.85
6835;BME280;3455;42.150;24.734;2022-09-09T00:51:46;67956.41;;;24.85;56.83
6835;BME280;3455;42.150;24.734;2022-09-09T00:54:29;67930.56;;;24.70;57.56
6835;BME280;3455;42.150;24.734;2022-09-09T00:57:13;67910.59;;;24.63;57.69
6835;BME280;3455;42.150;24.734;2022-09-09T00:59:47;67915.31;;;24.72;57.21
6835;BME280;3455;42.150;24.734;2022-09-09T01:02:25;67906.50;;;24.60;57.75
6835;BME280;3455;42.150;24.734;2022-09-09T01:04:57;67913.78;;;24.64;57.29
6835;BME280;3455;42.150;24.734;2022-09-09T01:07:27;67918.75;;;24.71;57.13
6835;BME280;3455;42.150;24.734;2022-09-09T01:09:56;67945.91;;;24.76;57.16
6835;BME280;3455;42.150;24.734;2022-09-09T01:12:33;67844.94;;;24.24;58.41
6835;BME280;3455;42.150;24.734;2022-09-09T01:15:09;67825.25;;;23.95;59.85
6835;BME280;3455;42.150;24.734;2022-09-09T01:17:48;67848.75;;;24.09;59.17
6835;BME280;3455;42.150;24.734;2022-09-09T01:20:22;67814.56;;;23.93;59.76
6835;BME280;3455;42.150;24.734;2022-09-09T01:23:04;67870.47;;;24.17;58.89
6835;BME280;3455;42.150;24.734;2022-09-09T01:28:44;67912.03;;;24.46;57.34
6835;BME280;3455;42.150;24.734;2022-09-09T01:31:16;67868.63;;;24.31;57.85
6835;BME280;3455;42.150;24.734;2022-09-09T01:33:44;67856.78;;;24.07;59.35
6835;BME280;3455;42.150;24.734;2022-09-09T01:36:15;67815.94;;;23.71;60.61
6835;BME280;3455;42.150;24.734;2022-09-09T01:38:45;67852.91;;;24.17;59.55
6835;BME280;3455;42.150;24.734;2022-09-09T01:41:11;67848.81;;;24.14;59.86
6835;BME280;3455;42.150;24.734;2022-09-09T01:43:38;67831.22;;;24.09;59.34
6835;BME280;3455;42.150;24.734;2022-09-09T01:46:07;67839.63;;;24.15;58.90
6835;BME280;3455;42.150;24.734;2022-09-09T01:48:34;67885.22;;;24.23;58.56
6835;BME280;3455;42.150;24.734;2022-09-09T01:51:01;67891.94;;;24.10;58.68
6835;BME280;3455;42.150;24.734;2022-09-09T01:53:27;67865.47;;;24.10;59.88
6835;BME280;3455;42.150;24.734;2022-09-09T01:56:04;67882.28;;;24.20;59.66
6835;BME280;3455;42.150;24.734;2022-09-09T01:58:39;67841.94;;;23.96;60.63
6835;BME280;3455;42.150;24.734;2022-09-09T02:01:17;67843.13;;;24.18;60.26
6835;BME280;3455;42.150;24.734;2022-09-09T02:03:52;67864.34;;;24.14;60.17
6835;BME280;3455;42.150;24.734;2022-09-09T02:06:26;67842.31;;;23.83;61.53
6835;BME280;3455;42.150;24.734;2022-09-09T02:08:56;67831.19;;;23.89;61.52
6835;BME280;3455;42.150;24.734;2022-09-09T02:11:26;67838.97;;;23.89;60.73
6835;BME280;3455;42.150;24.734;2022-09-09T02:13:57;67811.25;;;23.83;61.24
6835;BME280;3455;42.150;24.734;2022-09-09T02:16:30;67773.00;;;23.47;62.10
6835;BME280;3455;42.150;24.734;2022-09-09T02:19:02;67801.66;;;23.77;61.03
6835;BME280;3455;42.150;24.734;2022-09-09T02:21:33;67819.25;;;23.81;60.79
6835;BME280;3455;42.150;24.734;2022-09-09T02:24:04;67803.50;;;23.83;60.77
6835;BME280;3455;42.150;24.734;2022-09-09T02:26:34;67828.22;;;23.82;60.32
6835;BME280;3455;42.150;24.734;2022-09-09T02:29:06;67794.06;;;23.70;60.97
6835;BME280;3455;42.150;24.734;2022-09-09T02:31:36;67827.50;;;23.93;60.25
6835;BME280;3455;42.150;24.734;2022-09-09T02:34:05;67794.41;;;23.73;60.83
6835;BME280;3455;42.150;24.734;2022-09-09T02:36:36;67813.59;;;23.69;61.01
6835;BME280;3455;42.150;24.734;2022-09-09T02:39:07;67825.72;;;23.70;61.07
6835;BME280;3455;42.150;24.734;2022-09-09T02:41:37;67768.50;;;23.52;61.59
6835;BME280;3455;42.150;24.734;2022-09-09T02:44:05;67780.31;;;23.71;61.44
6835;BME280;3455;42.150;24.734;2022-09-09T02:46:46;67829.50;;;23.92;60.56
6835;BME280;3455;42.150;24.734;2022-09-09T02:49:24;67846.59;;;23.64;61.22
6835;BME280;3455;42.150;24.734;2022-09-09T02:52:00;67843.56;;;23.73;60.90
6835;BME280;3455;42.150;24.734;2022-09-09T02:54:29;67760.56;;;23.22;62.58
6835;BME280;3455;42.150;24.734;2022-09-09T02:57:01;67774.19;;;23.48;62.41
6835;BME280;3455;42.150;24.734;2022-09-09T02:59:30;67776.47;;;23.45;62.15
6835;BME280;3455;42.150;24.734;2022-09-09T03:01:59;67697.22;;;22.76;64.33
6835;BME280;3455;42.150;24.734;2022-09-09T03:04:26;67665.59;;;22.75;63.82
6835;BME280;3455;42.150;24.734;2022-09-09T03:06:53;67719.91;;;22.96;63.22
6835;BME280;3455;42.150;24.734;2022-09-09T03:09:20;67582.19;;;22.08;65.75
6835;BME280;3455;42.150;24.734;2022-09-09T03:11:47;67614.81;;;22.05;66.84
6835;BME280;3455;42.150;24.734;2022-09-09T03:14:14;67687.38;;;22.71;64.01
6835;BME280;3455;42.150;24.734;2022-09-09T03:16:42;67693.19;;;22.77;63.87
6835;BME280;3455;42.150;24.734;2022-09-09T03:19:10;67684.47;;;22.69;64.33
6835;BME280;3455;42.150;24.734;2022-09-09T03:21:37;67659.66;;;22.61;64.33
6835;BME280;3455;42.150;24.734;2022-09-09T03:24:04;67674.34;;;22.46;64.80
6835;BME280;3455;42.150;24.734;2022-09-09T03:26:32;67686.00;;;22.93;63.37
6835;BME280;3455;42.150;24.734;2022-09-09T03:28:58;67742.09;;;23.15;62.30
6835;BME280;3455;42.150;24.734;2022-09-09T03:31:26;67714.91;;;23.05;62.45
6835;BME280;3455;42.150;24.734;2022-09-09T03:33:55;67660.06;;;22.52;64.37
6835;BME280;3455;42.150;24.734;2022-09-09T03:36:24;67756.28;;;23.05;62.83
6835;BME280;3455;42.150;24.734;2022-09-09T03:38:53;67747.84;;;23.00;62.43
6835;BME280;3455;42.150;24.734;2022-09-09T03:41:20;67672.16;;;22.53;63.44
6835;BME280;3455;42.150;24.734;2022-09-09T03:43:49;67707.47;;;22.71;63.64
6835;BME280;3455;42.150;24.734;2022-09-09T03:46:15;67673.97;;;22.60;64.12
6835;BME280;3455;42.150;24.734;2022-09-09T03:48:42;67652.66;;;22.54;64.46
6835;BME280;3455;42.150;24.734;2022-09-09T03:51:09;67697.28;;;22.80;63.28
6835;BME280;3455;42.150;24.734;2022-09-09T03:53:37;67708.78;;;22.81;63.53
6835;BME280;3455;42.150;24.734;2022-09-09T03:56:05;67715.63;;;22.78;63.38
6835;BME280;3455;42.150;24.734;2022-09-09T03:58:32;67567.03;;;22.11;65.22
6835;BME280;3455;42.150;24.734;2022-09-09T04:01:01;67560.19;;;21.77;66.07
6835;BME280;3455;42.150;24.734;2022-09-09T04:03:28;67606.59;;;21.93;65.81
6835;BME280;3455;42.150;24.734;2022-09-09T04:05:57;67609.34;;;22.03;66.13
6835;BME280;3455;42.150;24.734;2022-09-09T04:08:24;67585.16;;;22.31;64.56
6835;BME280;3455;42.150;24.734;2022-09-09T04:10:53;67565.94;;;21.78;66.48
6835;BME280;3455;42.150;24.734;2022-09-09T04:15:51;67650.69;;;22.39;64.30
6835;BME280;3455;42.150;24.734;2022-09-09T04:18:18;67672.06;;;22.65;63.24
6835;BME280;3455;42.150;24.734;2022-09-09T04:20:46;67679.28;;;22.69;62.96
6835;BME280;3455;42.150;24.734;2022-09-09T04:23:13;67664.16;;;22.55;63.26
6835;BME280;3455;42.150;24.734;2022-09-09T04:25:43;67699.03;;;22.66;63.26
6835;BME280;3455;42.150;24.734;2022-09-09T04:28:13;67736.25;;;23.10;61.70
6835;BME280;3455;42.150;24.734;2022-09-09T04:30:39;67652.38;;;22.36;63.98
6835;BME280;3455;42.150;24.734;2022-09-09T04:33:07;67725.69;;;22.80;62.90
6835;BME280;3455;42.150;24.734;2022-09-09T04:35:35;67666.34;;;22.48;63.71
6835;BME280;3455;42.150;24.734;2022-09-09T04:38:02;67644.13;;;22.40;64.14
6835;BME280;3455;42.150;24.734;2022-09-09T04:40:29;67707.34;;;22.82;62.91
6835;BME280;3455;42.150;24.734;2022-09-09T04:42:57;67793.59;;;23.38;61.13
6835;BME280;3455;42.150;24.734;2022-09-09T04:45:26;67836.50;;;23.62;60.06
6835;BME280;3455;42.150;24.734;2022-09-09T04:47:53;67840.06;;;23.69;59.34
6835;BME280;3455;42.150;24.734;2022-09-09T04:50:20;67862.47;;;24.03;58.71
6835;BME280;3455;42.150;24.734;2022-09-09T04:52:47;67847.75;;;23.81;58.80
6835;BME280;3455;42.150;24.734;2022-09-09T04:55:14;67777.84;;;23.60;59.50
6835;BME280;3455;42.150;24.734;2022-09-09T04:57:41;67735.94;;;23.28;60.33
6835;BME280;3455;42.150;24.734;2022-09-09T05:00:09;67819.72;;;23.56;59.82
6835;BME280;3455;42.150;24.734;2022-09-09T05:02:38;67793.34;;;23.40;59.63
6835;BME280;3455;42.150;24.734;2022-09-09T05:05:06;67867.22;;;23.59;58.85
6835;BME280;3455;42.150;24.734;2022-09-09T05:07:33;67879.81;;;24.09;56.69
6835;BME280;3455;42.150;24.734;2022-09-09T05:09:59;67839.50;;;24.05;56.13
6835;BME280;3455;42.150;24.734;2022-09-09T05:12:26;67909.44;;;24.26;55.35
6835;BME280;3455;42.150;24.734;2022-09-09T05:14:53;67912.47;;;24.54;54.64
6835;BME280;3455;42.150;24.734;2022-09-09T05:17:20;67918.78;;;24.34;54.78
6835;BME280;3455;42.150;24.734;2022-09-09T05:19:48;67886.78;;;24.31;55.35
6835;BME280;3455;42.150;24.734;2022-09-09T05:22:18;67922.94;;;24.42;55.15
6835;BME280;3455;42.150;24.734;2022-09-09T05:24:45;67922.94;;;24.42;54.94
6835;BME280;3455;42.150;24.734;2022-09-09T05:27:12;67922.66;;;24.60;54.45
6835;BME280;3455;42.150;24.734;2022-09-09T05:29:39;67966.63;;;24.56;55.13
6835;BME280;3455;42.150;24.734;2022-09-09T05:32:06;67976.38;;;24.71;53.93
6835;BME280;3455;42.150;24.734;2022-09-09T05:34:33;67962.00;;;24.72;53.61
6835;BME280;3455;42.150;24.734;2022-09-09T05:37:01;68076.91;;;25.64;52.14
6835;BME280;3455;42.150;24.734;2022-09-09T05:39:29;68266.84;;;27.01;48.48
6835;BME280;3455;42.150;24.734;2022-09-09T05:41:56;68361.06;;;27.79;45.80
6835;BME280;3455;42.150;24.734;2022-09-09T05:44:22;68427.03;;;27.98;45.16
6835;BME280;3455;42.150;24.734;2022-09-09T05:46:52;68515.47;;;28.66;43.74
6835;BME280;3455;42.150;24.734;2022-09-09T05:49:19;68543.47;;;28.82;42.85
6835;BME280;3455;42.150;24.734;2022-09-09T05:51:46;68695.81;;;29.67;40.53
6835;BME280;3455;42.150;24.734;2022-09-09T05:54:14;68691.06;;;29.83;40.05
6835;BME280;3455;42.150;24.734;2022-09-09T05:56:41;68717.03;;;30.15;39.07
6835;BME280;3455;42.150;24.734;2022-09-09T05:59:08;68835.47;;;30.91;37.60
6835;BME280;3455;42.150;24.734;2022-09-09T06:01:36;68856.72;;;30.94;36.72
6835;BME280;3455;42.150;24.734;2022-09-09T06:04:06;68856.28;;;31.07;36.47
6835;BME280;3455;42.150;24.734;2022-09-09T06:06:34;68965.09;;;31.72;35.90
6835;BME280;3455;42.150;24.734;2022-09-09T06:09:03;69297.91;;;33.59;32.59
6835;BME280;3455;42.150;24.734;2022-09-09T06:11:35;69165.16;;;32.73;33.09
6835;BME280;3455;42.150;24.734;2022-09-09T06:14:02;69215.88;;;33.13;32.66
6835;BME280;3455;42.150;24.734;2022-09-09T06:16:30;69482.88;;;34.44;30.88
6835;BME280;3455;42.150;24.734;2022-09-09T06:18:58;69428.81;;;34.25;30.96
6835;BME280;3455;42.150;24.734;2022-09-09T06:21:26;69332.75;;;33.64;31.68
6835;BME280;3455;42.150;24.734;2022-09-09T06:23:53;69310.50;;;33.63;31.82
6835;BME280;3455;42.150;24.734;2022-09-09T06:26:22;69387.69;;;34.12;31.42
6835;BME280;3455;42.150;24.734;2022-09-09T06:28:52;69295.22;;;33.80;31.49
6835;BME280;3455;42.150;24.734;2022-09-09T06:31:21;69012.81;;;32.14;33.52
6835;BME280;3455;42.150;24.734;2022-09-09T06:33:49;69078.50;;;32.48;32.91
6835;BME280;3455;42.150;24.734;2022-09-09T06:36:18;69212.25;;;33.05;31.78
6835;BME280;3455;42.150;24.734;2022-09-09T06:38:45;69188.31;;;33.07;31.60
6835;BME280;3455;42.150;24.734;2022-09-09T06:41:14;69310.69;;;33.77;31.03
6835;BME280;3455;42.150;24.734;2022-09-09T06:43:41;69156.22;;;33.07;32.08
6835;BME280;3455;42.150;24.734;2022-09-09T06:46:11;69386.47;;;34.06;31.15
6835;BME280;3455;42.150;24.734;2022-09-09T06:48:39;69145.50;;;32.88;32.38
6835;BME280;3455;42.150;24.734;2022-09-09T06:51:09;69230.88;;;32.98;33.28
6835;BME280;3455;42.150;24.734;2022-09-09T06:53:37;69448.94;;;34.47;31.22
6835;BME280;3455;42.150;24.734;2022-09-09T06:56:19;69485.72;;;34.88;29.80
6835;BME280;3455;42.150;24.734;2022-09-09T06:58:49;69668.13;;;35.75;28.37
6835;BME280;3455;42.150;24.734;2022-09-09T07:01:20;69754.13;;;36.29;28.35
6835;BME280;3455;42.150;24.734;2022-09-09T07:03:50;69803.59;;;36.44;27.58
6835;BME280;3455;42.150;24.734;2022-09-09T07:06:18;69871.91;;;36.83;27.48
6835;BME280;3455;42.150;24.734;2022-09-09T07:08:49;69898.81;;;36.99;26.97
6835;BME280;3455;42.150;24.734;2022-09-09T07:11:17;69662.59;;;35.77;27.67
6835;BME280;3455;42.150;24.734;2022-09-09T07:13:45;69428.53;;;34.52;29.32
6835;BME280;3455;42.150;24.734;2022-09-09T07:16:16;69794.41;;;36.34;27.46
6835;BME280;3455;42.150;24.734;2022-09-09T07:18:44;69658.38;;;35.69;27.79
6835;BME280;3455;42.150;24.734;2022-09-09T07:21:13;69760.50;;;36.21;27.81
6835;BME280;3455;42.150;24.734;2022-09-09T07:23:41;69829.88;;;36.56;26.99
6835;BME280;3455;42.150;24.734;2022-09-09T07:26:09;69826.16;;;36.64;27.30
6835;BME280;3455;42.150;24.734;2022-09-09T07:28:36;69983.78;;;37.23;26.48
6835;BME280;3455;42.150;24.734;2022-09-09T07:31:04;70079.72;;;37.78;25.54
6835;BME280;3455;42.150;24.734;2022-09-09T07:33:32;70221.28;;;38.70;24.73
6835;BME280;3455;42.150;24.734;2022-09-09T07:36:05;69948.31;;;37.10;26.51
6835;BME280;3455;42.150;24.734;2022-09-09T07:38:37;70209.75;;;38.67;24.13
6835;BME280;3455;42.150;24.734;2022-09-09T07:41:06;70189.41;;;38.41;24.38
6835;BME280;3455;42.150;24.734;2022-09-09T07:43:37;70231.47;;;38.59;24.20
6835;BME280;3455;42.150;24.734;2022-09-09T07:46:04;70229.47;;;38.64;24.25
6835;BME280;3455;42.150;24.734;2022-09-09T07:48:31;70284.72;;;38.77;24.63
6835;BME280;3455;42.150;24.734;2022-09-09T07:51:08;70408.59;;;39.49;22.86
6835;BME280;3455;42.150;24.734;2022-09-09T07:53:35;70340.16;;;39.25;23.42
6835;BME280;3455;42.150;24.734;2022-09-09T07:56:05;70323.56;;;39.20;23.22
6835;BME280;3455;42.150;24.734;2022-09-09T07:58:32;70265.94;;;38.84;24.07
6835;BME280;3455;42.150;24.734;2022-09-09T08:00:59;70453.59;;;39.86;22.75
6835;BME280;3455;42.150;24.734;2022-09-09T08:03:26;70468.03;;;39.82;22.16
6835;BME280;3455;42.150;24.734;2022-09-09T08:05:52;70270.59;;;38.79;23.75
6835;BME280;3455;42.150;24.734;2022-09-09T08:08:21;70405.47;;;39.58;23.30
6835;BME280;3455;42.150;24.734;2022-09-09T08:10:47;70304.97;;;38.94;23.27
6835;BME280;3455;42.150;24.734;2022-09-09T08:13:14;70457.00;;;39.75;22.84
6835;BME280;3455;42.150;24.734;2022-09-09T08:15:42;70479.28;;;39.87;22.93
6835;BME280;3455;42.150;24.734;2022-09-09T08:18:09;70598.25;;;40.28;22.46
6835;BME280;3455;42.150;24.734;2022-09-09T08:20:36;70691.22;;;40.44;21.93
6835;BME280;3455;42.150;24.734;2022-09-09T08:23:04;70504.53;;;39.98;22.17
6835;BME280;3455;42.150;24.734;2022-09-09T08:25:32;70733.91;;;40.94;21.07
6835;BME280;3455;42.150;24.734;2022-09-09T08:28:00;70755.63;;;41.27;21.04
6835;BME280;3455;42.150;24.734;2022-09-09T08:30:27;71057.50;;;42.44;20.61
6835;BME280;3455;42.150;24.734;2022-09-09T08:32:54;70946.25;;;42.12;20.88
6835;BME280;3455;42.150;24.734;2022-09-09T08:35:20;70762.63;;;41.19;21.28
6835;BME280;3455;42.150;24.734;2022-09-09T08:37:47;70931.44;;;42.13;20.58
6835;BME280;3455;42.150;24.734;2022-09-09T08:40:22;70764.88;;;41.12;21.04
6835;BME280;3455;42.150;24.734;2022-09-09T08:42:55;70729.41;;;41.13;21.40
6835;BME280;3455;42.150;24.734;2022-09-09T08:45:30;70601.47;;;40.49;21.65
6835;BME280;3455;42.150;24.734;2022-09-09T08:48:08;70598.53;;;40.51;21.40
6835;BME280;3455;42.150;24.734;2022-09-09T08:50:37;71002.13;;;42.24;20.16
6835;BME280;3455;42.150;24.734;2022-09-09T08:53:11;70748.78;;;41.23;21.06
6835;BME280;3455;42.150;24.734;2022-09-09T08:55:45;70875.34;;;41.83;20.68
6835;BME280;3455;42.150;24.734;2022-09-09T08:58:17;71000.28;;;42.43;19.91
6835;BME280;3455;42.150;24.734;2022-09-09T09:00:56;71059.34;;;42.70;19.71
6835;BME280;3455;42.150;24.734;2022-09-09T09:03:33;71175.53;;;43.26;19.54
6835;BME280;3455;42.150;24.734;2022-09-09T09:06:07;71097.19;;;42.82;19.99
6835;BME280;3455;42.150;24.734;2022-09-09T09:08:46;70862.00;;;41.58;20.36
6835;BME280;3455;42.150;24.734;2022-09-09T09:11:17;71227.88;;;43.34;19.53
6835;BME280;3455;42.150;24.734;2022-09-09T09:13:47;71351.22;;;44.03;18.40
6835;BME280;3455;42.150;24.734;2022-09-09T09:16:23;71506.31;;;44.56;18.50
6835;BME280;3455;42.150;24.734;2022-09-09T09:18:51;71417.69;;;44.37;18.39
6835;BME280;3455;42.150;24.734;2022-09-09T09:21:26;71033.94;;;42.55;20.03
6835;BME280;3455;42.150;24.734;2022-09-09T09:23:59;70990.34;;;42.32;20.05
6835;BME280;3455;42.150;24.734;2022-09-09T09:26:31;71185.13;;;43.34;19.61
6835;BME280;3455;42.150;24.734;2022-09-09T09:29:03;71359.53;;;44.01;18.88
6835;BME280;3455;42.150;24.734;2022-09-09T09:31:36;71338.53;;;43.88;18.79
6835;BME280;3455;42.150;24.734;2022-09-09T09:34:03;71122.41;;;43.04;19.17
6835;BME280;3455;42.150;24.734;2022-09-09T09:36:34;71120.78;;;43.16;19.29
6835;BME280;3455;42.150;24.734;2022-09-09T09:39:03;71111.88;;;42.72;19.84
6835;BME280;3455;42.150;24.734;2022-09-09T09:41:32;71431.28;;;44.30;18.32
6835;BME280;3455;42.150;24.734;2022-09-09T09:44:02;71464.94;;;44.55;17.97
6835;BME280;3455;42.150;24.734;2022-09-09T09:46:30;71245.59;;;43.47;18.82
6835;BME280;3455;42.150;24.734;2022-09-09T09:48:58;71461.84;;;44.47;18.31
6835;BME280;3455;42.150;24.734;2022-09-09T09:51:26;71898.13;;;46.38;17.28
6835;BME280;3455;42.150;24.734;2022-09-09T09:53:53;71607.22;;;44.98;17.44
6835;BME280;3455;42.150;24.734;2022-09-09T09:56:27;71414.59;;;44.09;18.33
6835;BME280;3455;42.150;24.734;2022-09-09T09:58:55;71490.38;;;44.65;18.76
6835;BME280;3455;42.150;24.734;2022-09-09T10:01:25;71800.59;;;45.99;16.88
6835;BME280;3455;42.150;24.734;2022-09-09T10:03:54;71834.75;;;46.30;16.66
6835;BME280;3455;42.150;24.734;2022-09-09T10:06:30;71725.50;;;45.62;17.75
6835;BME280;3455;42.150;24.734;2022-09-09T10:08:57;71542.72;;;44.84;17.83
6835;BME280;3455;42.150;24.734;2022-09-09T10:11:38;71595.78;;;45.30;18.21
6835;BME280;3455;42.150;24.734;2022-09-09T10:14:16;71848.44;;;46.08;17.39
6835;BME280;3455;42.150;24.734;2022-09-09T10:16:56;71633.31;;;45.30;17.71
6835;BME280;3455;42.150;24.734;2022-09-09T10:19:31;71826.28;;;46.02;17.04
6835;BME280;3455;42.150;24.734;2022-09-09T10:22:19;71664.09;;;45.40;17.62
6835;BME280;3455;42.150;24.734;2022-09-09T10:25:10;72036.13;;;47.03;16.80
6835;BME280;3455;42.150;24.734;2022-09-09T10:27:49;71953.34;;;46.78;17.23
6835;BME280;3455;42.150;24.734;2022-09-09T10:30:23;71934.88;;;46.81;16.61
6835;BME280;3455;42.150;24.734;2022-09-09T10:33:00;72214.13;;;47.72;16.54
6835;BME280;3455;42.150;24.734;2022-09-09T10:35:33;72066.16;;;47.15;16.78
6835;BME280;3455;42.150;24.734;2022-09-09T10:38:20;72329.47;;;48.38;15.94
6835;BME280;3455;42.150;24.734;2022-09-09T10:41:05;72117.66;;;47.58;16.55
6835;BME280;3455;42.150;24.734;2022-09-09T10:43:45;72183.19;;;47.82;16.42
6835;BME280;3455;42.150;24.734;2022-09-09T10:46:24;71993.00;;;46.94;17.02
6835;BME280;3455;42.150;24.734;2022-09-09T10:49:06;72132.22;;;47.71;16.28
6835;BME280;3455;42.150;24.734;2022-09-09T10:51:40;72404.09;;;48.44;15.83
6835;BME280;3455;42.150;24.734;2022-09-09T10:54:31;72302.69;;;48.47;15.44
6835;BME280;3455;42.150;24.734;2022-09-09T10:57:05;72331.84;;;48.35;15.93
6835;BME280;3455;42.150;24.734;2022-09-09T10:59:40;72079.28;;;47.12;17.14
6835;BME280;3455;42.150;24.734;2022-09-09T11:02:14;71726.66;;;45.59;17.92
6835;BME280;3455;42.150;24.734;2022-09-09T11:04:46;72044.03;;;46.94;17.20
6835;BME280;3455;42.150;24.734;2022-09-09T11:07:25;72081.81;;;47.39;16.65
6835;BME280;3455;42.150;24.734;2022-09-09T11:09:59;72015.03;;;47.10;16.96
6835;BME280;3455;42.150;24.734;2022-09-09T11:12:30;72064.50;;;47.23;16.39
6835;BME280;3455;42.150;24.734;2022-09-09T11:15:01;72080.00;;;47.38;16.26
6835;BME280;3455;42.150;24.734;2022-09-09T11:17:36;72207.16;;;47.84;16.20
6835;BME280;3455;42.150;24.734;2022-09-09T11:20:11;72226.44;;;48.12;16.12
6835;BME280;3455;42.150;24.734;2022-09-09T11:22:43;72034.66;;;47.04;17.06
6835;BME280;3455;42.150;24.734;2022-09-09T11:25:16;71978.06;;;46.74;17.22
6835;BME280;3455;42.150;24.734;2022-09-09T11:27:52;72119.94;;;47.51;16.45
6835;BME280;3455;42.150;24.734;2022-09-09T11:30:31;71913.72;;;46.63;17.41
6835;BME280;3455;42.150;24.734;2022-09-09T11:33:31;71942.25;;;46.76;16.96
6835;BME280;3455;42.150;24.734;2022-09-09T11:36:16;71951.22;;;46.95;16.66
6835;BME280;3455;42.150;24.734;2022-09-09T11:38:52;72250.53;;;48.03;16.31
6835;BME280;3455;42.150;24.734;2022-09-09T11:41:20;72105.09;;;47.57;16.52
6835;BME280;3455;42.150;24.734;2022-09-09T11:43:49;71370.50;;;44.20;19.30
6835;BME280;3455;42.150;24.734;2022-09-09T11:46:20;71817.50;;;46.13;17.84
6835;BME280;3455;42.150;24.734;2022-09-09T11:48:58;71783.06;;;45.84;17.72
6835;BME280;3455;42.150;24.734;2022-09-09T11:51:29;71519.31;;;44.89;18.27
6835;BME280;3455;42.150;24.734;2022-09-09T11:53:57;71265.41;;;43.64;19.76
6835;BME280;3455;42.150;24.734;2022-09-09T11:56:28;71448.81;;;44.70;18.72
6835;BME280;3455;42.150;24.734;2022-09-09T11:58:59;71728.69;;;45.74;17.82
6835;BME280;3455;42.150;24.734;2022-09-09T12:01:39;71295.88;;;43.97;19.41
6835;BME280;3455;42.150;24.734;2022-09-09T12:04:30;71238.22;;;43.73;19.34
6835;BME280;3455;42.150;24.734;2022-09-09T12:07:00;71380.09;;;44.07;19.27
6835;BME280;3455;42.150;24.734;2022-09-09T12:09:44;71534.81;;;45.14;18.70
6835;BME280;3455;42.150;24.734;2022-09-09T12:12:30;71765.91;;;45.92;17.78
6835;BME280;3455;42.150;24.734;2022-09-09T12:15:17;71618.41;;;45.10;18.42
6835;BME280;3455;42.150;24.734;2022-09-09T12:17:47;71907.00;;;46.53;17.34
6835;BME280;3455;42.150;24.734;2022-09-09T12:20:17;71775.44;;;45.55;18.05
6835;BME280;3455;42.150;24.734;2022-09-09T12:23:15;71216.25;;;43.52;19.93
6835;BME280;3455;42.150;24.734;2022-09-09T12:25:59;70635.06;;;40.87;22.82
6835;BME280;3455;42.150;24.734;2022-09-09T12:28:42;70487.22;;;40.08;23.69
6835;BME280;3455;42.150;24.734;2022-09-09T12:31:16;70335.25;;;39.37;24.48
6835;BME280;3455;42.150;24.734;2022-09-09T12:33:45;70193.91;;;38.47;25.26
6835;BME280;3455;42.150;24.734;2022-09-09T12:36:15;70220.47;;;38.77;24.98
6835;BME280;3455;42.150;24.734;2022-09-09T12:38:46;70209.47;;;38.44;25.29
6835;BME280;3455;42.150;24.734;2022-09-09T12:41:22;70061.41;;;37.96;26.04
6835;BME280;3455;42.150;24.734;2022-09-09T12:43:50;70042.66;;;37.78;26.68
6835;BME280;3455;42.150;24.734;2022-09-09T12:46:23;70114.88;;;38.13;25.65
6835;BME280;3455;42.150;24.734;2022-09-09T12:48:54;70002.28;;;37.73;26.90
6835;BME280;3455;42.150;24.734;2022-09-09T12:51:25;70002.63;;;37.75;26.43
6835;BME280;3455;42.150;24.734;2022-09-09T12:53:54;70038.06;;;37.88;26.34
6835;BME280;3455;42.150;24.734;2022-09-09T12:56:22;70146.91;;;38.57;25.82
6835;BME280;3455;42.150;24.734;2022-09-09T12:58:53;70394.13;;;39.48;24.93
6835;BME280;3455;42.150;24.734;2022-09-09T13:01:24;70446.47;;;40.05;24.02
6835;BME280;3455;42.150;24.734;2022-09-09T13:03:51;70454.97;;;40.01;24.17
6835;BME280;3455;42.150;24.734;2022-09-09T13:06:22;70351.53;;;39.39;24.59
6835;BME280;3455;42.150;24.734;2022-09-09T13:08:50;70597.47;;;40.59;24.01
6835;BME280;3455;42.150;24.734;2022-09-09T13:11:21;70512.50;;;40.23;24.00
6835;BME280;3455;42.150;24.734;2022-09-09T13:13:53;70458.84;;;39.81;24.03
6835;BME280;3455;42.150;24.734;2022-09-09T13:16:23;70571.84;;;40.42;23.75
6835;BME280;3455;42.150;24.734;2022-09-09T13:18:52;70494.66;;;40.12;23.97
6835;BME280;3455;42.150;24.734;2022-09-09T13:21:31;70574.06;;;40.55;23.90
6835;BME280;3455;42.150;24.734;2022-09-09T13:23:58;70567.63;;;40.34;24.01
6835;BME280;3455;42.150;24.734;2022-09-09T13:26:30;70582.69;;;40.60;23.42
6835;BME280;3455;42.150;24.734;2022-09-09T13:29:08;70329.81;;;39.48;24.69
6835;BME280;3455;42.150;24.734;2022-09-09T13:31:43;70245.00;;;38.82;25.36
6835;BME280;3455;42.150;24.734;2022-09-09T13:34:12;70115.25;;;38.45;26.16
6835;BME280;3455;42.150;24.734;2022-09-09T13:36:39;70274.94;;;38.96;25.51